Oneco, Connecticut
Current Conditions -  °F | °C
As of 3:51 AM on Sunday 21 Dec 2014 (Local Time) from KPVD Reporting Station
Overcast Overcast  
Wind Chill: 25°   Ceiling: 800
Heat Index: 32°   Visibility: 8mi
Dew Point: 30°   Wind: 8mph
Humidity: 92%   Direction: 10°N
Pressure: 30.26"   Gusts: NA
Location:  41.69°N, 71.81°W
Report Text: KPVD 210851Z 01007KT 8SM OVC008 00/M01 A3026 RMK AO2 SLP248 60000 T00001011 50000
Loading
Personal Weather Stations






























Interactive Weather Map New forecast layout! Learn more

10-Day Weather Forecast

Advertisements
Track Severe Weather on mobile